sensor_id;sensor_type;location;lat;lon;timestamp;temperature;humidity
28336;DHT22;15592;53.656;7.276;2023-11-19T00:01:10;7.60;99.90
28336;DHT22;15592;53.656;7.276;2023-11-19T00:03:36;7.70;99.90
28336;DHT22;15592;53.656;7.276;2023-11-19T00:06:02;7.70;99.90
28336;DHT22;15592;53.656;7.276;2023-11-19T00:08:29;7.80;99.90
28336;DHT22;15592;53.656;7.276;2023-11-19T00:10:55;7.80;99.90
28336;DHT22;15592;53.656;7.276;2023-11-19T00:13:21;7.90;99.90
28336;DHT22;15592;53.656;7.276;2023-11-19T00:15:46;8.00;99.90
28336;DHT22;15592;53.656;7.276;2023-11-19T00:18:12;8.10;99.90
28336;DHT22;15592;53.656;7.276;2023-11-19T00:20:39;8.20;99.90
28336;DHT22;15592;53.656;7.276;2023-11-19T00:23:05;8.30;99.90
28336;DHT22;15592;53.656;7.276;2023-11-19T00:25:31;8.40;99.90
28336;DHT22;15592;53.656;7.276;2023-11-19T00:27:56;8.40;99.90
28336;DHT22;15592;53.656;7.276;2023-11-19T00:30:22;8.50;99.90
28336;DHT22;15592;53.656;7.276;2023-11-19T00:32:48;8.50;99.90
28336;DHT22;15592;53.656;7.276;2023-11-19T00:35:14;8.60;99.90
28336;DHT22;15592;53.656;7.276;2023-11-19T00:37:39;8.70;99.90
28336;DHT22;15592;53.656;7.276;2023-11-19T00:40:06;8.80;99.90
28336;DHT22;15592;53.656;7.276;2023-11-19T00:42:32;8.80;99.90
28336;DHT22;15592;53.656;7.276;2023-11-19T00:44:57;8.90;99.90
28336;DHT22;15592;53.656;7.276;2023-11-19T00:47:23;8.90;99.90
28336;DHT22;15592;53.656;7.276;2023-11-19T00:49:49;9.10;99.90
28336;DHT22;15592;53.656;7.276;2023-11-19T00:52:18;9.20;99.90
28336;DHT22;15592;53.656;7.276;2023-11-19T00:54:44;9.30;99.90
28336;DHT22;15592;53.656;7.276;2023-11-19T00:57:10;9.40;99.90
28336;DHT22;15592;53.656;7.276;2023-11-19T00:59:35;9.50;99.90
28336;DHT22;15592;53.656;7.276;2023-11-19T01:02:01;9.50;99.90
28336;DHT22;15592;53.656;7.276;2023-11-19T01:04:34;9.50;99.90
28336;DHT22;15592;53.656;7.276;2023-11-19T01:07:02;9.60;99.90
28336;DHT22;15592;53.656;7.276;2023-11-19T01:09:38;9.60;99.90
28336;DHT22;15592;53.656;7.276;2023-11-19T01:12:04;9.70;99.90
28336;DHT22;15592;53.656;7.276;2023-11-19T01:14:30;9.80;99.90
28336;DHT22;15592;53.656;7.276;2023-11-19T01:16:56;9.90;99.90
28336;DHT22;15592;53.656;7.276;2023-11-19T01:19:22;9.90;99.90
28336;DHT22;15592;53.656;7.276;2023-11-19T01:21:48;9.90;99.90
28336;DHT22;15592;53.656;7.276;2023-11-19T01:24:14;10.00;99.90
28336;DHT22;15592;53.656;7.276;2023-11-19T01:26:40;10.10;99.90
28336;DHT22;15592;53.656;7.276;2023-11-19T01:29:11;10.10;99.90
28336;DHT22;15592;53.656;7.276;2023-11-19T01:31:40;10.20;99.90
28336;DHT22;15592;53.656;7.276;2023-11-19T01:34:06;10.20;99.90
28336;DHT22;15592;53.656;7.276;2023-11-19T01:36:31;10.20;99.90
28336;DHT22;15592;53.656;7.276;2023-11-19T01:38:57;10.30;99.90
28336;DHT22;15592;53.656;7.276;2023-11-19T01:41:23;10.30;99.90
28336;DHT22;15592;53.656;7.276;2023-11-19T01:43:50;10.30;99.90
28336;DHT22;15592;53.656;7.276;2023-11-19T01:46:16;10.40;99.90
28336;DHT22;15592;53.656;7.276;2023-11-19T01:48:44;10.40;99.90
28336;DHT22;15592;53.656;7.276;2023-11-19T01:51:12;10.40;99.90
28336;DHT22;15592;53.656;7.276;2023-11-19T01:53:39;10.50;99.90
28336;DHT22;15592;53.656;7.276;2023-11-19T01:56:08;10.50;99.90
28336;DHT22;15592;53.656;7.276;2023-11-19T01:58:36;10.60;99.90
28336;DHT22;15592;53.656;7.276;2023-11-19T02:01:01;10.60;99.90
28336;DHT22;15592;53.656;7.276;2023-11-19T02:03:31;10.60;99.90
28336;DHT22;15592;53.656;7.276;2023-11-19T02:05:59;10.60;99.90
28336;DHT22;15592;53.656;7.276;2023-11-19T02:08:24;10.60;99.90
28336;DHT22;15592;53.656;7.276;2023-11-19T02:10:50;10.70;99.90
28336;DHT22;15592;53.656;7.276;2023-11-19T02:13:17;10.70;99.90
28336;DHT22;15592;53.656;7.276;2023-11-19T02:15:43;10.70;99.90
28336;DHT22;15592;53.656;7.276;2023-11-19T02:18:26;10.70;99.90
28336;DHT22;15592;53.656;7.276;2023-11-19T02:20:59;10.70;99.90
28336;DHT22;15592;53.656;7.276;2023-11-19T02:23:29;10.70;99.90
28336;DHT22;15592;53.656;7.276;2023-11-19T02:28:27;10.70;99.90
28336;DHT22;15592;53.656;7.276;2023-11-19T02:30:53;10.70;99.90
28336;DHT22;15592;53.656;7.276;2023-11-19T02:33:18;10.70;99.90
28336;DHT22;15592;53.656;7.276;2023-11-19T02:35:44;10.70;99.90
28336;DHT22;15592;53.656;7.276;2023-11-19T02:38:10;10.70;99.90
28336;DHT22;15592;53.656;7.276;2023-11-19T02:40:36;10.70;99.90
28336;DHT22;15592;53.656;7.276;2023-11-19T02:43:02;10.70;99.90
28336;DHT22;15592;53.656;7.276;2023-11-19T02:45:30;10.70;99.90
28336;DHT22;15592;53.656;7.276;2023-11-19T02:47:56;10.70;99.90
28336;DHT22;15592;53.656;7.276;2023-11-19T02:50:22;10.70;99.90
28336;DHT22;15592;53.656;7.276;2023-11-19T02:52:52;10.70;99.90
28336;DHT22;15592;53.656;7.276;2023-11-19T02:55:19;10.70;99.90
28336;DHT22;15592;53.656;7.276;2023-11-19T02:57:45;10.80;99.90
28336;DHT22;15592;53.656;7.276;2023-11-19T03:00:17;10.80;99.90
28336;DHT22;15592;53.656;7.276;2023-11-19T03:02:44;10.80;99.90
28336;DHT22;15592;53.656;7.276;2023-11-19T03:05:19;10.80;99.90
28336;DHT22;15592;53.656;7.276;2023-11-19T03:07:45;10.80;99.90
28336;DHT22;15592;53.656;7.276;2023-11-19T03:10:11;10.80;99.90
28336;DHT22;15592;53.656;7.276;2023-11-19T03:12:44;10.90;99.90
28336;DHT22;15592;53.656;7.276;2023-11-19T03:15:11;10.90;99.90
28336;DHT22;15592;53.656;7.276;2023-11-19T03:17:41;10.80;99.90
28336;DHT22;15592;53.656;7.276;2023-11-19T03:20:09;10.90;99.90
28336;DHT22;15592;53.656;7.276;2023-11-19T03:22:39;10.90;99.90
28336;DHT22;15592;53.656;7.276;2023-11-19T03:25:07;10.90;99.90
28336;DHT22;15592;53.656;7.276;2023-11-19T03:27:35;10.90;99.90
28336;DHT22;15592;53.656;7.276;2023-11-19T03:30:08;10.90;99.90
28336;DHT22;15592;53.656;7.276;2023-11-19T03:32:37;10.90;99.90
28336;DHT22;15592;53.656;7.276;2023-11-19T03:35:05;10.90;99.90
28336;DHT22;15592;53.656;7.276;2023-11-19T03:37:33;10.90;99.90
28336;DHT22;15592;53.656;7.276;2023-11-19T03:39:59;10.80;99.90
28336;DHT22;15592;53.656;7.276;2023-11-19T03:42:29;10.90;99.90
28336;DHT22;15592;53.656;7.276;2023-11-19T03:44:57;10.80;99.90
28336;DHT22;15592;53.656;7.276;2023-11-19T03:47:23;10.80;99.90
28336;DHT22;15592;53.656;7.276;2023-11-19T03:49:50;10.80;99.90
28336;DHT22;15592;53.656;7.276;2023-11-19T03:52:16;10.80;99.90
28336;DHT22;15592;53.656;7.276;2023-11-19T03:54:42;10.80;99.90
28336;DHT22;15592;53.656;7.276;2023-11-19T03:57:08;10.80;99.90
28336;DHT22;15592;53.656;7.276;2023-11-19T03:59:36;10.80;99.90
28336;DHT22;15592;53.656;7.276;2023-11-19T04:02:02;10.70;99.90
28336;DHT22;15592;53.656;7.276;2023-11-19T04:04:28;10.70;99.90
28336;DHT22;15592;53.656;7.276;2023-11-19T04:06:55;10.70;99.90
28336;DHT22;15592;53.656;7.276;2023-11-19T04:09:20;10.70;99.90
28336;DHT22;15592;53.656;7.276;2023-11-19T04:11:46;10.60;99.90
28336;DHT22;15592;53.656;7.276;2023-11-19T04:14:13;10.60;99.90
28336;DHT22;15592;53.656;7.276;2023-11-19T04:16:39;10.60;99.90
28336;DHT22;15592;53.656;7.276;2023-11-19T04:19:05;10.60;99.90
28336;DHT22;15592;53.656;7.276;2023-11-19T04:21:30;10.60;99.90
28336;DHT22;15592;53.656;7.276;2023-11-19T04:23:56;10.60;99.90
28336;DHT22;15592;53.656;7.276;2023-11-19T04:26:22;10.60;99.90
28336;DHT22;15592;53.656;7.276;2023-11-19T04:28:47;10.60;99.90
28336;DHT22;15592;53.656;7.276;2023-11-19T04:31:15;10.60;99.90
28336;DHT22;15592;53.656;7.276;2023-11-19T04:33:42;10.60;99.90
28336;DHT22;15592;53.656;7.276;2023-11-19T04:36:08;10.60;99.90
28336;DHT22;15592;53.656;7.276;2023-11-19T04:38:34;10.60;99.90
28336;DHT22;15592;53.656;7.276;2023-11-19T04:41:00;10.60;99.90
28336;DHT22;15592;53.656;7.276;2023-11-19T04:43:26;10.60;99.90
28336;DHT22;15592;53.656;7.276;2023-11-19T04:45:51;10.60;99.90
28336;DHT22;15592;53.656;7.276;2023-11-19T04:48:17;10.60;99.90
28336;DHT22;15592;53.656;7.276;2023-11-19T04:50:43;10.60;99.90
28336;DHT22;15592;53.656;7.276;2023-11-19T04:53:08;10.60;99.90
28336;DHT22;15592;53.656;7.276;2023-11-19T04:55:34;10.60;99.90
28336;DHT22;15592;53.656;7.276;2023-11-19T04:57:59;10.50;99.90
28336;DHT22;15592;53.656;7.276;2023-11-19T05:00:26;10.50;99.90
28336;DHT22;15592;53.656;7.276;2023-11-19T05:02:51;10.50;99.90
28336;DHT22;15592;53.656;7.276;2023-11-19T05:05:17;10.50;99.90
28336;DHT22;15592;53.656;7.276;2023-11-19T05:07:43;10.50;99.90
28336;DHT22;15592;53.656;7.276;2023-11-19T05:10:11;10.50;99.90
28336;DHT22;15592;53.656;7.276;2023-11-19T05:12:36;10.50;99.90
28336;DHT22;15592;53.656;7.276;2023-11-19T05:15:02;10.60;99.90
28336;DHT22;15592;53.656;7.276;2023-11-19T05:17:28;10.60;99.90
28336;DHT22;15592;53.656;7.276;2023-11-19T05:19:54;10.60;99.90
28336;DHT22;15592;53.656;7.276;2023-11-19T05:22:19;10.60;99.90
28336;DHT22;15592;53.656;7.276;2023-11-19T05:24:48;10.60;99.90
28336;DHT22;15592;53.656;7.276;2023-11-19T05:27:15;10.60;99.90
28336;DHT22;15592;53.656;7.276;2023-11-19T05:29:40;10.60;99.90
28336;DHT22;15592;53.656;7.276;2023-11-19T05:32:07;10.60;99.90
28336;DHT22;15592;53.656;7.276;2023-11-19T05:34:32;10.50;99.90
28336;DHT22;15592;53.656;7.276;2023-11-19T05:36:58;10.50;99.90
28336;DHT22;15592;53.656;7.276;2023-11-19T05:39:24;10.50;99.90
28336;DHT22;15592;53.656;7.276;2023-11-19T05:41:50;10.50;99.90
28336;DHT22;15592;53.656;7.276;2023-11-19T05:44:16;10.40;99.90
28336;DHT22;15592;53.656;7.276;2023-11-19T05:46:49;10.40;99.90
28336;DHT22;15592;53.656;7.276;2023-11-19T05:49:15;10.40;99.90
28336;DHT22;15592;53.656;7.276;2023-11-19T05:51:41;10.40;99.90
28336;DHT22;15592;53.656;7.276;2023-11-19T05:54:08;10.40;99.90
28336;DHT22;15592;53.656;7.276;2023-11-19T05:56:35;10.40;99.90
28336;DHT22;15592;53.656;7.276;2023-11-19T05:59:01;10.40;99.90
28336;DHT22;15592;53.656;7.276;2023-11-19T06:01:29;10.40;99.90
28336;DHT22;15592;53.656;7.276;2023-11-19T06:03:55;10.40;99.90
28336;DHT22;15592;53.656;7.276;2023-11-19T06:06:20;10.40;99.90
28336;DHT22;15592;53.656;7.276;2023-11-19T06:08:46;10.40;99.90
28336;DHT22;15592;53.656;7.276;2023-11-19T06:11:12;10.40;99.90
28336;DHT22;15592;53.656;7.276;2023-11-19T06:13:44;10.40;99.90
28336;DHT22;15592;53.656;7.276;2023-11-19T06:16:14;10.40;99.90
28336;DHT22;15592;53.656;7.276;2023-11-19T06:18:39;10.40;99.90
28336;DHT22;15592;53.656;7.276;2023-11-19T06:21:09;10.40;99.90
28336;DHT22;15592;53.656;7.276;2023-11-19T06:23:35;10.30;99.90
28336;DHT22;15592;53.656;7.276;2023-11-19T06:26:13;10.30;99.90
28336;DHT22;15592;53.656;7.276;2023-11-19T06:28:48;10.30;99.90
28336;DHT22;15592;53.656;7.276;2023-11-19T06:31:13;10.30;99.90
28336;DHT22;15592;53.656;7.276;2023-11-19T06:33:41;10.30;99.90
28336;DHT22;15592;53.656;7.276;2023-11-19T06:36:08;10.30;99.90
28336;DHT22;15592;53.656;7.276;2023-11-19T06:38:35;10.30;99.90
28336;DHT22;15592;53.656;7.276;2023-11-19T06:41:00;10.30;99.90
28336;DHT22;15592;53.656;7.276;2023-11-19T06:43:27;10.30;99.90
28336;DHT22;15592;53.656;7.276;2023-11-19T06:45:54;10.30;99.90
28336;DHT22;15592;53.656;7.276;2023-11-19T06:48:19;10.30;99.90
28336;DHT22;15592;53.656;7.276;2023-11-19T06:50:48;10.30;99.90
28336;DHT22;15592;53.656;7.276;2023-11-19T06:53:14;10.20;99.90
28336;DHT22;15592;53.656;7.276;2023-11-19T06:55:39;10.20;99.90
28336;DHT22;15592;53.656;7.276;2023-11-19T06:58:06;10.20;99.90
28336;DHT22;15592;53.656;7.276;2023-11-19T07:00:32;10.20;99.90
28336;DHT22;15592;53.656;7.276;2023-11-19T07:02:58;10.20;99.90
28336;DHT22;15592;53.656;7.276;2023-11-19T07:05:24;10.20;99.90
28336;DHT22;15592;53.656;7.276;2023-11-19T07:07:50;10.20;99.90
28336;DHT22;15592;53.656;7.276;2023-11-19T07:10:16;10.20;99.90
28336;DHT22;15592;53.656;7.276;2023-11-19T07:12:42;10.20;99.90
28336;DHT22;15592;53.656;7.276;2023-11-19T07:15:16;10.20;99.90
28336;DHT22;15592;53.656;7.276;2023-11-19T07:17:45;10.20;99.90
28336;DHT22;15592;53.656;7.276;2023-11-19T07:20:11;10.20;99.90
28336;DHT22;15592;53.656;7.276;2023-11-19T07:22:43;10.20;99.90
28336;DHT22;15592;53.656;7.276;2023-11-19T07:25:12;10.20;99.90
28336;DHT22;15592;53.656;7.276;2023-11-19T07:27:38;10.10;99.90
28336;DHT22;15592;53.656;7.276;2023-11-19T07:30:05;10.20;99.90
28336;DHT22;15592;53.656;7.276;2023-11-19T07:32:33;10.20;99.90
28336;DHT22;15592;53.656;7.276;2023-11-19T07:34:58;10.10;99.90
28336;DHT22;15592;53.656;7.276;2023-11-19T07:37:25;10.10;99.90
28336;DHT22;15592;53.656;7.276;2023-11-19T07:39:50;10.10;99.90
28336;DHT22;15592;53.656;7.276;2023-11-19T07:42:22;10.20;99.90
28336;DHT22;15592;53.656;7.276;2023-11-19T07:44:49;10.20;99.90
28336;DHT22;15592;53.656;7.276;2023-11-19T07:47:14;10.20;99.90
28336;DHT22;15592;53.656;7.276;2023-11-19T07:49:45;10.20;99.90
28336;DHT22;15592;53.656;7.276;2023-11-19T07:52:11;10.20;99.90
28336;DHT22;15592;53.656;7.276;2023-11-19T07:54:40;10.20;99.90
28336;DHT22;15592;53.656;7.276;2023-11-19T07:57:18;10.20;99.90
28336;DHT22;15592;53.656;7.276;2023-11-19T07:59:49;10.20;99.90
28336;DHT22;15592;53.656;7.276;2023-11-19T08:02:14;10.30;99.90
28336;DHT22;15592;53.656;7.276;2023-11-19T08:04:40;10.20;99.90
28336;DHT22;15592;53.656;7.276;2023-11-19T08:07:10;10.20;99.90
28336;DHT22;15592;53.656;7.276;2023-11-19T08:09:36;10.20;99.90
28336;DHT22;15592;53.656;7.276;2023-11-19T08:12:03;10.20;99.90
28336;DHT22;15592;53.656;7.276;2023-11-19T08:14:29;10.20;99.90
28336;DHT22;15592;53.656;7.276;2023-11-19T08:16:55;10.30;99.90
28336;DHT22;15592;53.656;7.276;2023-11-19T08:19:20;10.30;99.90
28336;DHT22;15592;53.656;7.276;2023-11-19T08:21:46;10.20;99.90
28336;DHT22;15592;53.656;7.276;2023-11-19T08:24:11;10.20;99.90
28336;DHT22;15592;53.656;7.276;2023-11-19T08:26:37;10.30;99.90
28336;DHT22;15592;53.656;7.276;2023-11-19T08:29:03;10.30;99.90
28336;DHT22;15592;53.656;7.276;2023-11-19T08:31:29;10.30;99.90
28336;DHT22;15592;53.656;7.276;2023-11-19T08:33:54;10.30;99.90
28336;DHT22;15592;53.656;7.276;2023-11-19T08:36:20;10.30;99.90
28336;DHT22;15592;53.656;7.276;2023-11-19T08:38:46;10.30;99.90
28336;DHT22;15592;53.656;7.276;2023-11-19T08:41:12;10.30;99.90
28336;DHT22;15592;53.656;7.276;2023-11-19T08:43:37;10.30;99.90
28336;DHT22;15592;53.656;7.276;2023-11-19T08:46:09;10.20;99.90
28336;DHT22;15592;53.656;7.276;2023-11-19T08:48:35;10.30;99.90
28336;DHT22;15592;53.656;7.276;2023-11-19T08:51:01;10.30;99.90
28336;DHT22;15592;53.656;7.276;2023-11-19T08:53:26;10.40;99.90
28336;DHT22;15592;53.656;7.276;2023-11-19T08:55:52;10.40;99.90
28336;DHT22;15592;53.656;7.276;2023-11-19T08:58:18;10.30;99.90
28336;DHT22;15592;53.656;7.276;2023-11-19T09:00:43;10.40;99.90
28336;DHT22;15592;53.656;7.276;2023-11-19T09:03:09;10.40;99.90
28336;DHT22;15592;53.656;7.276;2023-11-19T09:05:35;10.40;99.90
28336;DHT22;15592;53.656;7.276;2023-11-19T09:08:00;10.40;99.90
28336;DHT22;15592;53.656;7.276;2023-11-19T09:10:26;10.50;99.90
28336;DHT22;15592;53.656;7.276;2023-11-19T09:12:52;10.50;99.90
28336;DHT22;15592;53.656;7.276;2023-11-19T09:15:18;10.50;99.90
28336;DHT22;15592;53.656;7.276;2023-11-19T09:17:44;10.50;99.90
28336;DHT22;15592;53.656;7.276;2023-11-19T09:20:11;10.50;99.90
28336;DHT22;15592;53.656;7.276;2023-11-19T09:22:40;10.50;99.90
28336;DHT22;15592;53.656;7.276;2023-11-19T09:25:06;10.60;99.90
28336;DHT22;15592;53.656;7.276;2023-11-19T09:27:32;10.60;99.90
28336;DHT22;15592;53.656;7.276;2023-11-19T09:29:57;10.60;99.90
28336;DHT22;15592;53.656;7.276;2023-11-19T09:32:24;10.60;99.90
28336;DHT22;15592;53.656;7.276;2023-11-19T09:34:50;10.60;99.90
28336;DHT22;15592;53.656;7.276;2023-11-19T09:37:16;10.60;99.90
28336;DHT22;15592;53.656;7.276;2023-11-19T09:39:42;10.60;99.90
28336;DHT22;15592;53.656;7.276;2023-11-19T09:42:12;10.70;99.90
28336;DHT22;15592;53.656;7.276;2023-11-19T09:44:38;10.70;99.90
28336;DHT22;15592;53.656;7.276;2023-11-19T09:47:05;10.70;99.90
28336;DHT22;15592;53.656;7.276;2023-11-19T09:49:32;10.70;99.90
28336;DHT22;15592;53.656;7.276;2023-11-19T09:51:59;10.70;99.90
28336;DHT22;15592;53.656;7.276;2023-11-19T09:54:24;10.80;99.90
28336;DHT22;15592;53.656;7.276;2023-11-19T09:56:50;10.80;99.90
28336;DHT22;15592;53.656;7.276;2023-11-19T09:59:16;11.00;99.90
28336;DHT22;15592;53.656;7.276;2023-11-19T10:01:43;11.10;99.90
28336;DHT22;15592;53.656;7.276;2023-11-19T10:04:13;11.20;99.90
28336;DHT22;15592;53.656;7.276;2023-11-19T10:06:41;11.30;99.90
28336;DHT22;15592;53.656;7.276;2023-11-19T10:09:07;11.30;99.90
28336;DHT22;15592;53.656;7.276;2023-11-19T10:11:33;11.30;99.90
28336;DHT22;15592;53.656;7.276;2023-11-19T10:13:59;11.20;99.90
28336;DHT22;15592;53.656;7.276;2023-11-19T10:16:29;11.20;99.90
28336;DHT22;15592;53.656;7.276;2023-11-19T10:18:56;11.20;99.90
28336;DHT22;15592;53.656;7.276;2023-11-19T10:21:22;11.20;99.90
28336;DHT22;15592;53.656;7.276;2023-11-19T10:23:53;11.20;99.90
28336;DHT22;15592;53.656;7.276;2023-11-19T10:26:20;11.20;99.90
28336;DHT22;15592;53.656;7.276;2023-11-19T10:28:46;11.10;99.90
28336;DHT22;15592;53.656;7.276;2023-11-19T10:31:17;11.10;99.90
28336;DHT22;15592;53.656;7.276;2023-11-19T10:33:44;11.00;99.90
28336;DHT22;15592;53.656;7.276;2023-11-19T10:36:11;11.00;99.90
28336;DHT22;15592;53.656;7.276;2023-11-19T10:38:53;11.00;99.90
28336;DHT22;15592;53.656;7.276;2023-11-19T10:41:29;11.00;99.90
28336;DHT22;15592;53.656;7.276;2023-11-19T10:43:56;11.10;99.90
28336;DHT22;15592;53.656;7.276;2023-11-19T10:46:22;11.20;99.90
28336;DHT22;15592;53.656;7.276;2023-11-19T10:48:49;11.20;99.90
28336;DHT22;15592;53.656;7.276;2023-11-19T10:51:19;11.30;99.90
28336;DHT22;15592;53.656;7.276;2023-11-19T10:53:49;11.30;99.90
28336;DHT22;15592;53.656;7.276;2023-11-19T10:56:17;11.30;99.90
28336;DHT22;15592;53.656;7.276;2023-11-19T10:58:45;11.30;99.90
28336;DHT22;15592;53.656;7.276;2023-11-19T11:01:19;11.30;99.90
28336;DHT22;15592;53.656;7.276;2023-11-19T11:03:51;11.30;99.90
28336;DHT22;15592;53.656;7.276;2023-11-19T11:06:17;11.30;99.90
28336;DHT22;15592;53.656;7.276;2023-11-19T11:08:45;11.30;99.90
28336;DHT22;15592;53.656;7.276;2023-11-19T11:11:13;11.30;99.90
28336;DHT22;15592;53.656;7.276;2023-11-19T11:13:42;11.30;99.90
28336;DHT22;15592;53.656;7.276;2023-11-19T11:16:08;11.30;99.90
28336;DHT22;15592;53.656;7.276;2023-11-19T11:18:34;11.40;99.90
28336;DHT22;15592;53.656;7.276;2023-11-19T11:21:10;11.40;99.90
28336;DHT22;15592;53.656;7.276;2023-11-19T11:30:06;11.60;99.90
28336;DHT22;15592;53.656;7.276;2023-11-19T11:32:33;11.60;99.90
28336;DHT22;15592;53.656;7.276;2023-11-19T11:35:16;11.60;99.90
28336;DHT22;15592;53.656;7.276;2023-11-19T11:37:49;11.60;99.90
28336;DHT22;15592;53.656;7.276;2023-11-19T11:40:18;11.60;99.90
28336;DHT22;15592;53.656;7.276;2023-11-19T11:42:47;11.70;99.90
28336;DHT22;15592;53.656;7.276;2023-11-19T11:45:14;11.60;99.90
28336;DHT22;15592;53.656;7.276;2023-11-19T11:50:13;11.60;99.90
28336;DHT22;15592;53.656;7.276;2023-11-19T11:55:26;11.50;99.90
28336;DHT22;15592;53.656;7.276;2023-11-19T11:57:53;11.50;99.90
28336;DHT22;15592;53.656;7.276;2023-11-19T12:00:32;11.50;99.90
28336;DHT22;15592;53.656;7.276;2023-11-19T12:03:04;11.50;99.90
28336;DHT22;15592;53.656;7.276;2023-11-19T12:05:30;11.50;99.90
28336;DHT22;15592;53.656;7.276;2023-11-19T12:08:01;11.50;99.90
28336;DHT22;15592;53.656;7.276;2023-11-19T12:10:30;11.40;99.90
28336;DHT22;15592;53.656;7.276;2023-11-19T12:13:03;11.40;99.90
28336;DHT22;15592;53.656;7.276;2023-11-19T12:15:31;11.40;99.90
28336;DHT22;15592;53.656;7.276;2023-11-19T12:17:57;11.40;99.90
28336;DHT22;15592;53.656;7.276;2023-11-19T12:20:25;11.40;99.90
28336;DHT22;15592;53.656;7.276;2023-11-19T12:22:52;11.40;99.90
28336;DHT22;15592;53.656;7.276;2023-11-19T12:25:19;11.50;99.90
28336;DHT22;15592;53.656;7.276;2023-11-19T12:27:49;11.50;99.90
28336;DHT22;15592;53.656;7.276;2023-11-19T12:30:25;11.50;99.90
28336;DHT22;15592;53.656;7.276;2023-11-19T12:32:51;11.50;99.90
28336;DHT22;15592;53.656;7.276;2023-11-19T12:35:19;11.50;99.90
28336;DHT22;15592;53.656;7.276;2023-11-19T12:37:46;11.50;99.90
28336;DHT22;15592;53.656;7.276;2023-11-19T12:40:23;11.50;99.90
28336;DHT22;15592;53.656;7.276;2023-11-19T12:42:50;11.50;99.90
28336;DHT22;15592;53.656;7.276;2023-11-19T12:45:16;11.50;99.90
28336;DHT22;15592;53.656;7.276;2023-11-19T12:47:43;11.50;99.90
28336;DHT22;15592;53.656;7.276;2023-11-19T12:50:10;11.50;99.90
28336;DHT22;15592;53.656;7.276;2023-11-19T12:52:36;11.50;99.90
28336;DHT22;15592;53.656;7.276;2023-11-19T12:55:04;11.50;99.90
28336;DHT22;15592;53.656;7.276;2023-11-19T12:57:41;11.50;99.90
28336;DHT22;15592;53.656;7.276;2023-11-19T13:00:18;11.60;99.90
28336;DHT22;15592;53.656;7.276;2023-11-19T13:02:50;11.60;99.90
28336;DHT22;15592;53.656;7.276;2023-11-19T13:05:32;11.70;99.90
28336;DHT22;15592;53.656;7.276;2023-11-19T13:08:10;11.70;99.90
28336;DHT22;15592;53.656;7.276;2023-11-19T13:10:50;11.70;99.90
28336;DHT22;15592;53.656;7.276;2023-11-19T13:13:16;11.80;99.90
28336;DHT22;15592;53.656;7.276;2023-11-19T13:15:42;11.70;99.90
28336;DHT22;15592;53.656;7.276;2023-11-19T13:18:10;11.70;99.90
28336;DHT22;15592;53.656;7.276;2023-11-19T13:20:36;11.70;99.90
28336;DHT22;15592;53.656;7.276;2023-11-19T13:23:06;11.70;99.90
28336;DHT22;15592;53.656;7.276;2023-11-19T13:25:35;11.60;99.90
28336;DHT22;15592;53.656;7.276;2023-11-19T13:28:02;11.60;99.90
28336;DHT22;15592;53.656;7.276;2023-11-19T13:30:28;11.50;99.90
28336;DHT22;15592;53.656;7.276;2023-11-19T13:32:54;11.40;99.90
28336;DHT22;15592;53.656;7.276;2023-11-19T13:35:21;11.30;99.90
28336;DHT22;15592;53.656;7.276;2023-11-19T13:37:47;11.20;99.90
28336;DHT22;15592;53.656;7.276;2023-11-19T13:40:13;11.10;99.90
28336;DHT22;15592;53.656;7.276;2023-11-19T13:42:41;11.00;99.90
28336;DHT22;15592;53.656;7.276;2023-11-19T13:45:14;11.00;99.90
28336;DHT22;15592;53.656;7.276;2023-11-19T13:47:44;10.90;99.90
28336;DHT22;15592;53.656;7.276;2023-11-19T13:50:13;10.80;99.90
28336;DHT22;15592;53.656;7.276;2023-11-19T13:52:42;10.80;99.90
28336;DHT22;15592;53.656;7.276;2023-11-19T13:55:09;10.80;99.90
28336;DHT22;15592;53.656;7.276;2023-11-19T13:57:36;10.70;99.90
28336;DHT22;15592;53.656;7.276;2023-11-19T14:00:03;10.70;99.90
28336;DHT22;15592;53.656;7.276;2023-11-19T14:02:33;10.60;99.90
28336;DHT22;15592;53.656;7.276;2023-11-19T14:04:58;10.60;99.90
28336;DHT22;15592;53.656;7.276;2023-11-19T14:07:24;10.60;99.90
28336;DHT22;15592;53.656;7.276;2023-11-19T14:09:50;10.50;99.90
28336;DHT22;15592;53.656;7.276;2023-11-19T14:12:16;10.50;99.90
28336;DHT22;15592;53.656;7.276;2023-11-19T14:14:43;10.40;99.90
28336;DHT22;15592;53.656;7.276;2023-11-19T14:17:09;10.40;99.90
28336;DHT22;15592;53.656;7.276;2023-11-19T14:19:36;10.40;99.90
28336;DHT22;15592;53.656;7.276;2023-11-19T14:22:02;10.40;99.90
28336;DHT22;15592;53.656;7.276;2023-11-19T14:24:28;10.40;99.90
28336;DHT22;15592;53.656;7.276;2023-11-19T14:26:53;10.40;99.90
28336;DHT22;15592;53.656;7.276;2023-11-19T14:29:19;10.40;99.90
28336;DHT22;15592;53.656;7.276;2023-11-19T14:31:45;10.40;99.90
28336;DHT22;15592;53.656;7.276;2023-11-19T14:34:10;10.40;99.90
28336;DHT22;15592;53.656;7.276;2023-11-19T14:36:36;10.40;99.90
28336;DHT22;15592;53.656;7.276;2023-11-19T14:39:02;10.40;99.90
28336;DHT22;15592;53.656;7.276;2023-11-19T14:41:29;10.40;99.90
28336;DHT22;15592;53.656;7.276;2023-11-19T14:43:54;10.40;99.90
28336;DHT22;15592;53.656;7.276;2023-11-19T14:46:20;10.40;99.90
28336;DHT22;15592;53.656;7.276;2023-11-19T14:48:46;10.40;99.90
28336;DHT22;15592;53.656;7.276;2023-11-19T14:51:11;10.40;99.90
28336;DHT22;15592;53.656;7.276;2023-11-19T14:53:38;10.40;99.90
28336;DHT22;15592;53.656;7.276;2023-11-19T14:56:04;10.40;99.90
28336;DHT22;15592;53.656;7.276;2023-11-19T14:58:32;10.40;99.90
28336;DHT22;15592;53.656;7.276;2023-11-19T15:00:58;10.40;99.90
28336;DHT22;15592;53.656;7.276;2023-11-19T15:03:23;10.40;99.90
28336;DHT22;15592;53.656;7.276;2023-11-19T15:05:49;10.30;99.90
28336;DHT22;15592;53.656;7.276;2023-11-19T15:08:16;10.30;99.90
28336;DHT22;15592;53.656;7.276;2023-11-19T15:10:42;10.30;99.90
28336;DHT22;15592;53.656;7.276;2023-11-19T15:13:08;10.40;99.90
28336;DHT22;15592;53.656;7.276;2023-11-19T15:15:34;10.30;99.90
28336;DHT22;15592;53.656;7.276;2023-11-19T15:18:00;10.40;99.90
28336;DHT22;15592;53.656;7.276;2023-11-19T15:20:26;10.40;99.90
28336;DHT22;15592;53.656;7.276;2023-11-19T15:22:55;10.40;99.90
28336;DHT22;15592;53.656;7.276;2023-11-19T15:25:21;10.40;99.90
28336;DHT22;15592;53.656;7.276;2023-11-19T15:27:48;10.40;99.90
28336;DHT22;15592;53.656;7.276;2023-11-19T15:30:14;10.40;99.90
28336;DHT22;15592;53.656;7.276;2023-11-19T15:32:39;10.40;99.90
28336;DHT22;15592;53.656;7.276;2023-11-19T15:35:06;10.40;99.90
28336;DHT22;15592;53.656;7.276;2023-11-19T15:37:38;10.40;99.90
28336;DHT22;15592;53.656;7.276;2023-11-19T15:40:09;10.40;99.90
28336;DHT22;15592;53.656;7.276;2023-11-19T15:42:37;10.40;99.90
28336;DHT22;15592;53.656;7.276;2023-11-19T15:45:03;10.40;99.90
28336;DHT22;15592;53.656;7.276;2023-11-19T15:47:30;10.40;99.90